Time;durP1;ratioP1;P1;durP2;ratioP2;P2;SDS_P1;SDS_P2;PMS_P1;PMS_P2;Temp;Humidity;BMP_temperature;BMP_pressure;BME280_temperature;BME280_humidity;BME280_pressure;Samples;Min_cycle;Max_cycle;Signal;HPM_P1;HPM_P2
2022/06/14 00:01:10;;;;;;;3.58;1.58;;;11.00;99.90;;;;;;5105169;28;20192;-88
2022/06/14 00:03:42;;;;;;;2.28;1.80;;;11.10;99.90;;;;;;5109102;28;20219;-84
2022/06/14 00:06:15;;;;;;;3.58;1.80;;;11.20;99.90;;;;;;5105255;28;20183;-84
2022/06/14 00:08:46;;;;;;;3.35;1.77;;;11.30;99.90;;;;;;5104762;28;20231;-83
2022/06/14 00:11:19;;;;;;;2.20;1.50;;;11.40;99.90;;;;;;5102938;28;20248;-85
2022/06/14 00:13:52;;;;;;;2.63;1.75;;;11.40;99.90;;;;;;5108033;28;20212;-80
2022/06/14 00:16:24;;;;;;;4.43;1.90;;;11.50;99.90;;;;;;5102535;28;20196;-82
2022/06/14 00:18:57;;;;;;;2.25;1.90;;;11.60;99.90;;;;;;5105425;28;20210;-79
2022/06/14 00:21:32;;;;;;;3.83;1.85;;;11.70;99.90;;;;;;5104740;28;20196;-78
2022/06/14 00:24:05;;;;;;;2.58;2.00;;;11.80;99.90;;;;;;5103641;28;20194;-81
2022/06/14 00:26:35;;;;;;;4.95;1.80;;;11.90;99.90;;;;;;5104496;28;20196;-83
2022/06/14 00:29:08;;;;;;;3.25;2.00;;;12.00;99.90;;;;;;5101641;28;20245;-84
2022/06/14 00:31:38;;;;;;;4.05;1.90;;;12.10;99.90;;;;;;5103340;28;20192;-82
2022/06/14 00:34:09;;;;;;;5.50;2.50;;;12.10;99.90;;;;;;5106356;28;20219;-83
2022/06/14 00:36:40;;;;;;;4.18;2.00;;;12.20;99.90;;;;;;5098314;28;20195;-81
2022/06/14 00:39:14;;;;;;;4.85;1.98;;;12.30;99.90;;;;;;5104565;28;20204;-81
2022/06/14 00:41:47;;;;;;;2.40;2.03;;;12.40;99.90;;;;;;5102772;28;20210;-79
2022/06/14 00:44:22;;;;;;;4.05;2.20;;;12.50;99.90;;;;;;5105264;28;20200;-84
2022/06/14 00:46:58;;;;;;;3.55;2.20;;;12.60;99.90;;;;;;5101942;28;20214;-83
2022/06/14 00:49:41;;;;;;;4.97;2.10;;;12.70;99.90;;;;;;5110052;28;20559;-83
2022/06/14 00:53:04;;;;;;;3.15;2.08;;;12.80;99.90;;;;;;5099879;28;20199;-83
2022/06/14 00:55:40;;;;;;;4.95;2.17;;;12.80;99.90;;;;;;5102504;28;20651;-82
2022/06/14 00:58:49;;;;;;;3.20;2.58;;;13.00;99.90;;;;;;5104279;28;20719;-82
2022/06/14 01:01:25;;;;;;;4.25;2.80;;;13.10;99.90;;;;;;5103444;28;20208;-84
2022/06/14 01:03:58;;;;;;;4.15;2.40;;;13.20;99.90;;;;;;5101761;28;20226;-81
2022/06/14 01:06:39;;;;;;;4.28;2.45;;;13.30;99.90;;;;;;5105329;28;20227;-82
2022/06/14 01:12:08;;;;;;;3.15;2.58;;;13.40;99.90;;;;;;5093086;28;20548;-82
2022/06/14 01:14:44;;;;;;;3.75;2.75;;;13.50;99.90;;;;;;5104477;28;20283;-82
2022/06/14 01:17:18;;;;;;;4.45;2.40;;;13.50;99.90;;;;;;5103113;28;20304;-81
2022/06/14 01:19:48;;;;;;;4.15;2.70;;;13.70;99.90;;;;;;5103359;28;20196;-84
2022/06/14 01:22:28;;;;;;;4.03;2.88;;;13.70;99.90;;;;;;5102830;28;20270;-83
2022/06/14 01:25:00;;;;;;;4.00;2.60;;;13.80;99.90;;;;;;5104534;28;20191;-83
2022/06/14 01:27:33;;;;;;;6.18;3.25;;;13.80;99.90;;;;;;5103109;28;20200;-82
2022/06/14 01:30:18;;;;;;;3.97;3.03;;;14.00;99.90;;;;;;5103584;28;20681;-84
2022/06/14 01:33:12;;;;;;;3.83;2.88;;;14.10;99.90;;;;;;5106578;28;20257;-81
2022/06/14 01:35:48;;;;;;;6.72;3.80;;;14.10;99.90;;;;;;5104327;28;20665;-81
2022/06/14 01:38:21;;;;;;;6.03;3.47;;;14.20;99.90;;;;;;5101577;28;20210;-85
2022/06/14 01:40:58;;;;;;;6.15;4.07;;;14.30;99.90;;;;;;5103618;28;20192;-84
2022/06/14 01:43:53;;;;;;;5.43;3.15;;;14.40;99.90;;;;;;5103843;28;20192;-84
2022/06/14 01:46:25;;;;;;;5.78;4.05;;;14.50;99.90;;;;;;5102486;28;20203;-84
2022/06/14 01:52:17;;;;;;;7.50;4.70;;;14.70;99.90;;;;;;5100971;28;20580;-82
2022/06/14 01:54:57;;;;;;;6.85;3.70;;;14.70;99.90;;;;;;5106190;28;20203;-83
2022/06/14 01:57:46;;;;;;;7.57;4.10;;;14.80;99.90;;;;;;5110847;28;20282;-84
2022/06/14 02:00:19;;;;;;;6.47;3.75;;;14.90;99.90;;;;;;5106130;28;20283;-81
2022/06/14 02:04:37;;;;;;;6.22;4.00;;;14.90;99.90;;;;;;5108260;28;20219;-82
2022/06/14 02:08:25;;;;;;;15.80;6.75;;;15.00;99.90;;;;;;5059281;28;20784;-78
2022/06/14 02:11:09;;;;;;;8.50;4.22;;;15.10;99.90;;;;;;5073381;28;20200;-78
2022/06/14 02:13:48;;;;;;;5.47;3.95;;;15.20;99.90;;;;;;5072181;28;20217;-78
2022/06/14 02:16:23;;;;;;;6.30;3.55;;;15.20;99.90;;;;;;5071527;28;20200;-77
2022/06/14 02:18:57;;;;;;;7.20;3.70;;;15.30;99.90;;;;;;5074673;28;20650;-76
2022/06/14 02:21:34;;;;;;;6.60;3.47;;;15.40;99.90;;;;;;5065592;28;20251;-77
2022/06/14 02:24:10;;;;;;;4.97;2.45;;;15.40;99.90;;;;;;5067833;28;20201;-77
2022/06/14 02:26:48;;;;;;;4.70;2.42;;;15.40;99.90;;;;;;5068208;28;20199;-78
2022/06/14 02:29:23;;;;;;;6.63;2.38;;;15.40;99.90;;;;;;5067580;28;20205;-78
2022/06/14 02:31:58;;;;;;;4.20;2.22;;;15.30;99.90;;;;;;5074946;28;20196;-78
2022/06/14 02:34:32;;;;;;;5.45;3.08;;;15.30;99.90;;;;;;5072375;28;20220;-77
2022/06/14 02:37:09;;;;;;;3.67;2.70;;;15.40;99.90;;;;;;5071293;28;20201;-78
2022/06/14 02:39:45;;;;;;;3.65;2.00;;;15.40;99.90;;;;;;5070890;28;20246;-77
2022/06/14 02:42:24;;;;;;;3.67;1.75;;;15.50;99.90;;;;;;5074061;28;20228;-78
2022/06/14 02:45:00;;;;;;;5.32;1.80;;;15.50;99.90;;;;;;5071662;28;20204;-78
2022/06/14 02:47:40;;;;;;;9.70;2.67;;;15.60;99.90;;;;;;5068840;28;20701;-77
2022/06/14 02:50:16;;;;;;;5.78;2.60;;;15.70;99.90;;;;;;5069741;28;20201;-78
2022/06/14 02:52:53;;;;;;;2.95;1.95;;;15.70;99.90;;;;;;5074685;28;20580;-77
2022/06/14 02:55:29;;;;;;;3.90;2.00;;;15.80;99.90;;;;;;5070259;28;20192;-77
2022/06/14 02:58:05;;;;;;;3.40;1.90;;;15.90;99.90;;;;;;5071581;28;20606;-78
2022/06/14 03:00:42;;;;;;;3.00;1.80;;;15.90;99.90;;;;;;5063973;28;20194;-77
2022/06/14 03:03:18;;;;;;;3.42;1.67;;;15.90;99.90;;;;;;5063951;28;20212;-79
2022/06/14 03:05:54;;;;;;;4.55;2.05;;;15.90;99.90;;;;;;5063799;28;20227;-77
2022/06/14 03:08:29;;;;;;;3.03;1.70;;;16.00;99.90;;;;;;5072335;28;20250;-78
2022/06/14 03:11:07;;;;;;;2.08;1.40;;;16.00;99.90;;;;;;5082168;28;20203;-77
2022/06/14 03:13:44;;;;;;;3.58;2.35;;;16.10;99.90;;;;;;5071652;28;20698;-78
2022/06/14 03:16:26;;;;;;;6.07;3.83;;;16.20;99.90;;;;;;5083854;28;20196;-78
2022/06/14 03:19:03;;;;;;;5.63;3.45;;;16.30;99.90;;;;;;5074317;28;20195;-78
2022/06/14 03:21:39;;;;;;;7.82;5.10;;;16.30;99.90;;;;;;5076346;28;20569;-77
2022/06/14 03:24:15;;;;;;;4.10;2.97;;;16.40;99.90;;;;;;5077064;28;20682;-78
2022/06/14 03:26:56;;;;;;;4.03;2.85;;;16.40;99.90;;;;;;5083336;28;20200;-79
2022/06/14 03:29:35;;;;;;;3.47;1.50;;;16.40;99.90;;;;;;5081117;28;20674;-78
2022/06/14 03:32:12;;;;;;;2.15;1.40;;;16.40;99.90;;;;;;5071932;28;20659;-78
2022/06/14 03:34:48;;;;;;;2.75;1.50;;;16.40;99.90;;;;;;5085590;28;20576;-79
2022/06/14 03:37:19;;;;;;;1.90;1.40;;;16.40;99.90;;;;;;5082581;28;20192;-78
2022/06/14 03:39:54;;;;;;;2.30;1.40;;;16.50;99.90;;;;;;5089401;28;20559;-79
2022/06/14 03:42:25;;;;;;;5.53;1.73;;;16.50;99.90;;;;;;5083766;28;20191;-78
2022/06/14 03:44:59;;;;;;;4.32;1.60;;;16.50;99.90;;;;;;5074656;28;20568;-78
2022/06/14 03:47:31;;;;;;;3.92;1.50;;;16.50;99.90;;;;;;5055690;28;20259;-78
2022/06/14 03:50:05;;;;;;;3.58;1.60;;;16.50;99.90;;;;;;5073547;28;20204;-78
2022/06/14 03:52:52;;;;;;;5.47;1.60;;;16.50;99.90;;;;;;5074497;28;20184;-78
2022/06/14 03:55:33;;;;;;;1.90;1.30;;;16.60;99.90;;;;;;5073380;28;20201;-78
2022/06/14 03:58:16;;;;;;;2.58;1.45;;;16.60;99.90;;;;;;5083297;28;20197;-80
2022/06/14 04:00:54;;;;;;;2.88;1.30;;;16.50;99.90;;;;;;5073592;28;20196;-79
2022/06/14 04:03:41;;;;;;;3.55;1.40;;;16.50;99.90;;;;;;5075195;28;20193;-79
2022/06/14 04:06:21;;;;;;;2.78;1.40;;;16.60;99.90;;;;;;5076619;28;20228;-78
2022/06/14 04:09:03;;;;;;;2.33;1.40;;;16.60;99.90;;;;;;5064837;28;20196;-78
2022/06/14 04:11:51;;;;;;;2.72;1.40;;;16.50;99.90;;;;;;5074351;28;20258;-79
2022/06/14 04:14:35;;;;;;;2.97;1.20;;;16.60;99.90;;;;;;5081415;28;20686;-79
2022/06/14 04:17:17;;;;;;;1.77;1.13;;;16.70;99.90;;;;;;5073735;28;20189;-79
2022/06/14 04:20:03;;;;;;;1.95;1.20;;;16.70;99.90;;;;;;5081160;28;20615;-78
2022/06/14 04:22:45;;;;;;;2.33;1.10;;;16.70;99.90;;;;;;5089958;28;20573;-79
2022/06/14 04:25:25;;;;;;;1.60;0.95;;;16.60;99.90;;;;;;5073756;28;20242;-78
2022/06/14 04:38:25;;;;;;;1.48;0.90;;;16.60;99.90;;;;;;5044954;28;20560;-80
2022/06/14 04:51:26;;;;;;;1.50;0.68;;;16.80;99.90;;;;;;4986566;28;20211;-79
2022/06/14 05:17:16;;;;;;;1.65;0.50;;;16.60;99.90;;;;;;4952482;29;20287;-78
2022/06/14 05:20:10;;;;;;;0.43;0.40;;;16.60;99.90;;;;;;4934821;29;20209;-78
2022/06/14 06:05:28;;;;;;;1.67;0.60;;;16.20;99.90;;;;;;4894709;29;20215;-79
2022/06/14 06:12:00;;;;;;;0.82;0.50;;;16.10;99.90;;;;;;4934425;29;20205;-79
2022/06/14 06:35:37;;;;;;;2.53;1.50;;;15.60;99.90;;;;;;4926725;29;20277;-79
2022/06/14 06:45:07;;;;;;;3.45;1.30;;;15.30;99.90;;;;;;4910819;29;20691;-79
2022/06/14 06:47:42;;;;;;;4.88;1.48;;;15.20;99.90;;;;;;4920843;29;20190;-79
2022/06/14 06:50:25;;;;;;;5.05;1.65;;;15.10;99.90;;;;;;4914342;29;20231;-79
2022/06/14 06:53:03;;;;;;;3.85;1.20;;;15.00;99.90;;;;;;4904561;29;20209;-80
2022/06/14 06:55:43;;;;;;;8.73;2.03;;;14.90;99.90;;;;;;4922677;29;20240;-80
2022/06/14 06:58:19;;;;;;;3.92;1.33;;;14.80;99.90;;;;;;4935673;29;20216;-80
2022/06/14 07:00:54;;;;;;;4.38;1.40;;;14.70;99.90;;;;;;4923696;29;20210;-82
2022/06/14 07:03:33;;;;;;;3.75;1.65;;;14.60;99.90;;;;;;4906494;29;20197;-79
2022/06/14 07:06:06;;;;;;;5.32;1.40;;;14.50;99.90;;;;;;4914752;29;20230;-79
2022/06/14 07:08:45;;;;;;;4.80;1.45;;;14.40;99.90;;;;;;4914857;29;20202;-79
2022/06/14 07:11:20;;;;;;;7.35;1.27;;;14.20;99.90;;;;;;4917326;29;20210;-79
2022/06/14 07:13:59;;;;;;;4.53;1.70;;;14.10;99.90;;;;;;4906519;29;20202;-79
2022/06/14 07:16:37;;;;;;;5.28;1.75;;;14.00;99.90;;;;;;4913335;29;20654;-79
2022/06/14 07:19:24;;;;;;;4.70;1.45;;;13.90;99.90;;;;;;4921383;29;20228;-80
2022/06/14 07:21:59;;;;;;;3.83;1.40;;;13.70;99.90;;;;;;4915886;29;20230;-80
2022/06/14 07:24:34;;;;;;;4.55;1.40;;;13.60;99.90;;;;;;4900122;29;20221;-79
2022/06/14 07:27:08;;;;;;;6.47;1.70;;;13.60;99.90;;;;;;4903822;29;20253;-80
2022/06/14 07:29:42;;;;;;;3.75;1.60;;;13.50;99.90;;;;;;4954591;28;20208;-79
2022/06/14 07:32:20;;;;;;;3.22;1.85;;;13.40;99.90;;;;;;5015276;28;20242;-79
2022/06/14 07:34:51;;;;;;;4.60;1.70;;;13.30;99.90;;;;;;5006064;28;20269;-79
2022/06/14 07:37:30;;;;;;;5.65;1.70;;;13.20;99.90;;;;;;5011559;28;20199;-79
2022/06/14 07:40:04;;;;;;;5.35;1.67;;;13.20;99.90;;;;;;5013979;28;20203;-80
2022/06/14 07:42:39;;;;;;;8.25;2.05;;;13.10;99.90;;;;;;5019080;28;20696;-80
2022/06/14 07:45:20;;;;;;;5.88;1.80;;;13.00;99.90;;;;;;5014103;28;20744;-79
2022/06/14 07:47:56;;;;;;;4.45;1.67;;;13.00;99.90;;;;;;5065339;28;20659;-79
2022/06/14 07:50:36;;;;;;;4.28;1.67;;;12.90;99.90;;;;;;5065697;28;20208;-79
2022/06/14 07:53:13;;;;;;;5.57;2.00;;;12.80;99.90;;;;;;5069562;28;20250;-79
2022/06/14 07:55:47;;;;;;;6.95;2.20;;;12.70;99.90;;;;;;5061050;28;20220;-79
2022/06/14 07:58:25;;;;;;;8.93;2.13;;;12.60;99.90;;;;;;5071597;28;20246;-80
2022/06/14 08:01:10;;;;;;;6.85;1.85;;;12.60;99.90;;;;;;5080273;28;20216;-80
2022/06/14 08:03:50;;;;;;;6.43;1.80;;;12.60;99.90;;;;;;5092190;22;20580;-80
2022/06/14 08:06:25;;;;;;;5.55;1.83;;;12.60;99.90;;;;;;5083483;28;20200;-80
2022/06/14 08:09:01;;;;;;;4.60;1.80;;;12.50;99.90;;;;;;5083907;28;20195;-80
2022/06/14 08:11:38;;;;;;;6.93;2.00;;;12.50;99.90;;;;;;5081824;28;20200;-80
2022/06/14 08:14:12;;;;;;;3.70;1.90;;;12.50;99.90;;;;;;5089010;28;20196;-80
2022/06/14 08:16:43;;;;;;;6.35;2.55;;;12.50;99.90;;;;;;5084042;28;20199;-80
2022/06/14 08:19:21;;;;;;;6.45;2.97;;;12.40;99.90;;;;;;5084192;28;20267;-80
2022/06/14 08:21:57;;;;;;;6.40;2.88;;;12.40;99.90;;;;;;5085438;28;20201;-80
2022/06/14 08:24:33;;;;;;;7.43;2.65;;;12.40;99.90;;;;;;5087459;28;20196;-79
2022/06/14 08:27:07;;;;;;;10.10;3.13;;;12.40;99.90;;;;;;5091300;28;20207;-79
2022/06/14 08:29:44;;;;;;;9.00;3.20;;;12.40;99.90;;;;;;5080751;28;20647;-78
2022/06/14 08:32:19;;;;;;;7.43;3.40;;;12.30;99.90;;;;;;5090506;28;20203;-79
2022/06/14 08:34:57;;;;;;;7.78;3.20;;;12.20;99.90;;;;;;5087725;28;20259;-79
2022/06/14 08:37:34;;;;;;;8.45;3.17;;;12.20;99.90;;;;;;5077401;28;20200;-79
2022/06/14 08:40:27;;;;;;;12.50;3.00;;;12.20;99.90;;;;;;5091081;28;20192;-78
2022/06/14 08:43:01;;;;;;;9.43;3.20;;;12.10;99.90;;;;;;5093682;28;20204;-78
2022/06/14 08:45:37;;;;;;;6.90;2.95;;;12.10;99.90;;;;;;5089213;28;20245;-79
2022/06/14 08:48:24;;;;;;;13.73;3.10;;;12.10;99.90;;;;;;5090532;28;20237;-79
2022/06/14 08:51:14;;;;;;;7.22;2.90;;;12.10;99.90;;;;;;5082394;28;20258;-79
2022/06/14 08:54:24;;;;;;;8.70;3.33;;;12.10;99.90;;;;;;5077506;28;20267;-79
2022/06/14 08:57:18;;;;;;;7.47;3.00;;;12.00;99.90;;;;;;5081445;28;20197;-79
2022/06/14 09:00:21;;;;;;;7.20;3.30;;;12.10;99.90;;;;;;5080020;28;20654;-79
2022/06/14 09:03:19;;;;;;;8.40;3.00;;;12.00;99.90;;;;;;5079293;28;20238;-79
2022/06/14 09:06:20;;;;;;;8.98;3.47;;;12.00;99.90;;;;;;5091288;28;20200;-79
2022/06/14 09:09:20;;;;;;;9.05;3.40;;;12.00;99.90;;;;;;5084543;28;20576;-79
2022/06/14 09:12:22;;;;;;;11.00;3.80;;;11.90;99.90;;;;;;5087595;28;20208;-79
2022/06/14 09:15:30;;;;;;;9.98;4.47;;;11.90;99.90;;;;;;5083707;28;20223;-79
2022/06/14 09:18:12;;;;;;;10.23;4.50;;;11.90;99.90;;;;;;5075856;28;20618;-79
2022/06/14 09:20:54;;;;;;;12.75;5.45;;;11.90;99.90;;;;;;5088278;28;20204;-79
2022/06/14 09:23:46;;;;;;;8.73;4.10;;;11.90;99.90;;;;;;5089280;28;20206;-79
2022/06/14 09:26:46;;;;;;;7.68;3.53;;;11.80;99.90;;;;;;5089419;28;20238;-79
2022/06/14 09:29:53;;;;;;;9.35;3.17;;;11.90;99.90;;;;;;5089412;28;20659;-80
2022/06/14 09:33:17;;;;;;;10.38;3.55;;;11.80;99.90;;;;;;5088644;28;20207;-79
2022/06/14 09:36:21;;;;;;;9.27;3.65;;;11.80;99.90;;;;;;5087451;28;20219;-80
2022/06/14 09:39:22;;;;;;;8.43;3.47;;;11.70;99.90;;;;;;5089402;28;20199;-79
2022/06/14 09:42:35;;;;;;;8.65;4.15;;;11.70;99.90;;;;;;5088990;28;20542;-78
2022/06/14 09:45:35;;;;;;;8.68;3.90;;;11.70;99.90;;;;;;5072919;28;20189;-78
2022/06/14 09:48:45;;;;;;;10.95;3.90;;;11.60;99.90;;;;;;5080640;28;20197;-79
2022/06/14 09:51:56;;;;;;;9.05;3.30;;;11.60;99.90;;;;;;5038677;28;20208;-79
2022/06/14 09:55:07;;;;;;;8.55;3.53;;;11.60;99.90;;;;;;5090707;28;20196;-79
2022/06/14 09:58:02;;;;;;;9.98;3.38;;;11.50;99.90;;;;;;5090115;28;20197;-78
2022/06/14 10:00:45;;;;;;;9.70;3.88;;;11.50;99.90;;;;;;5073471;28;20189;-79
2022/06/14 10:03:52;;;;;;;10.70;4.00;;;11.50;99.90;;;;;;5089237;28;20255;-79
2022/06/14 10:06:42;;;;;;;8.23;3.80;;;11.50;99.90;;;;;;5057159;28;20211;-78
2022/06/14 10:09:34;;;;;;;8.98;3.60;;;11.40;99.90;;;;;;5085881;28;20562;-79
2022/06/14 10:12:28;;;;;;;9.52;3.70;;;11.40;99.90;;;;;;5085693;28;20203;-79
2022/06/14 10:15:07;;;;;;;7.10;3.55;;;11.40;99.90;;;;;;5089611;28;20228;-79
2022/06/14 10:18:00;;;;;;;8.30;3.75;;;11.30;99.90;;;;;;5093540;28;20207;-79
2022/06/14 10:20:54;;;;;;;11.20;3.70;;;11.30;99.90;;;;;;5090562;28;20192;-79
2022/06/14 10:23:53;;;;;;;12.43;4.10;;;11.30;99.90;;;;;;5092984;28;20193;-79
2022/06/14 10:29:47;;;;;;;11.38;4.00;;;11.20;99.90;;;;;;5096518;28;20646;-79
2022/06/14 10:32:47;;;;;;;8.10;3.85;;;11.20;99.90;;;;;;5091775;28;20655;-79
2022/06/14 10:35:22;;;;;;;8.70;4.22;;;11.20;99.90;;;;;;5090627;28;20224;-79
2022/06/14 10:38:48;;;;;;;7.88;3.78;;;11.20;99.90;;;;;;5095412;28;20196;-79
2022/06/14 10:41:29;;;;;;;10.68;4.00;;;11.20;99.90;;;;;;4972030;28;20207;-79
2022/06/14 10:44:07;;;;;;;7.72;3.78;;;11.10;99.90;;;;;;5094950;28;20206;-79
2022/06/14 10:46:43;;;;;;;9.43;3.88;;;11.10;99.90;;;;;;5091590;28;20283;-79
2022/06/14 10:49:44;;;;;;;10.75;3.72;;;11.10;99.90;;;;;;5094277;28;20313;-79
2022/06/14 10:52:32;;;;;;;12.50;4.40;;;11.10;99.90;;;;;;5069690;28;20303;-79
2022/06/14 10:55:18;;;;;;;7.93;3.97;;;11.00;99.90;;;;;;5093767;28;20219;-79
2022/06/14 10:58:14;;;;;;;9.02;4.05;;;11.00;99.90;;;;;;5094765;28;20192;-78
2022/06/14 11:00:50;;;;;;;11.63;4.35;;;11.00;99.90;;;;;;5075128;28;20212;-78
2022/06/14 11:03:48;;;;;;;10.07;4.55;;;11.00;99.90;;;;;;5074978;28;20239;-78
2022/06/14 11:06:47;;;;;;;12.25;4.15;;;11.00;99.90;;;;;;5093361;28;20655;-78
2022/06/14 11:09:35;;;;;;;10.52;4.78;;;10.90;99.90;;;;;;5091899;28;20204;-78
2022/06/14 11:12:20;;;;;;;8.68;4.75;;;10.90;99.90;;;;;;5090976;28;20564;-78
2022/06/14 11:15:11;;;;;;;12.50;5.10;;;10.90;99.90;;;;;;5090766;28;20196;-79
2022/06/14 11:18:10;;;;;;;16.23;5.47;;;10.80;99.90;;;;;;5086752;28;20909;-78
2022/06/14 11:20:51;;;;;;;9.10;4.72;;;10.80;99.90;;;;;;5066768;28;20212;-78
2022/06/14 11:23:30;;;;;;;13.27;4.80;;;10.80;99.90;;;;;;5094400;28;20254;-79
2022/06/14 11:26:08;;;;;;;11.00;4.65;;;10.70;99.90;;;;;;5091421;28;20204;-78
2022/06/14 11:28:46;;;;;;;11.20;5.25;;;10.70;99.90;;;;;;5092058;28;20196;-78
2022/06/14 11:31:23;;;;;;;11.00;4.60;;;10.60;99.90;;;;;;5092795;28;20196;-79
2022/06/14 11:34:10;;;;;;;10.98;4.97;;;10.60;99.90;;;;;;5094975;28;20191;-78
2022/06/14 11:36:50;;;;;;;12.25;4.43;;;10.60;99.90;;;;;;5093116;28;20216;-78
2022/06/14 11:39:34;;;;;;;11.68;4.40;;;10.60;99.90;;;;;;5091298;28;20654;-78
2022/06/14 11:42:08;;;;;;;10.40;5.07;;;10.50;99.90;;;;;;5092173;28;20196;-78
2022/06/14 11:44:58;;;;;;;10.05;5.13;;;10.50;99.90;;;;;;5090309;28;20203;-78
2022/06/14 11:47:34;;;;;;;11.43;6.47;;;10.40;99.90;;;;;;5091441;28;20204;-78
2022/06/14 11:50:13;;;;;;;10.88;5.63;;;10.40;99.90;;;;;;5094652;28;20188;-78
2022/06/14 11:52:58;;;;;;;13.48;6.03;;;10.40;99.90;;;;;;5082083;28;20712;-78
2022/06/14 11:55:39;;;;;;;12.93;4.97;;;10.30;99.90;;;;;;5093491;28;20686;-78
2022/06/14 11:58:24;;;;;;;13.30;5.50;;;10.30;99.90;;;;;;5094574;28;20200;-79
2022/06/14 12:01:14;;;;;;;13.43;6.22;;;10.30;99.90;;;;;;5094588;28;20289;-79
2022/06/14 12:04:06;;;;;;;16.38;6.60;;;10.20;99.90;;;;;;5093427;28;20228;-79
2022/06/14 12:06:46;;;;;;;11.52;6.22;;;10.20;99.90;;;;;;5093957;28;20706;-79
2022/06/14 12:09:47;;;;;;;11.75;6.20;;;10.20;99.90;;;;;;5093697;28;20184;-79
2022/06/14 12:12:30;;;;;;;10.88;5.60;;;10.20;99.90;;;;;;5094123;28;20207;-80
2022/06/14 12:15:09;;;;;;;12.20;6.65;;;10.20;99.90;;;;;;5094247;28;20701;-79
2022/06/14 12:17:44;;;;;;;15.82;6.32;;;10.20;99.90;;;;;;5084198;28;20227;-80
2022/06/14 12:20:16;;;;;;;13.25;6.90;;;10.20;99.90;;;;;;5074566;28;20189;-79
2022/06/14 12:22:56;;;;;;;14.35;7.13;;;10.10;99.90;;;;;;5080239;28;20189;-79
2022/06/14 12:28:28;;;;;;;14.60;6.57;;;10.10;99.90;;;;;;5094136;28;20291;-79
2022/06/14 12:31:04;;;;;;;15.45;6.88;;;10.20;99.90;;;;;;5093952;28;20537;-79
2022/06/14 12:33:40;;;;;;;10.63;6.43;;;10.20;99.90;;;;;;5093893;28;20188;-79
2022/06/14 12:36:29;;;;;;;9.15;6.30;;;10.10;99.90;;;;;;5093566;28;20215;-79
2022/06/14 12:39:04;;;;;;;11.23;6.25;;;10.00;99.90;;;;;;5093809;28;20618;-79
2022/06/14 12:41:39;;;;;;;9.85;5.82;;;10.00;99.90;;;;;;5093617;28;20192;-79
2022/06/14 12:44:31;;;;;;;12.32;6.68;;;9.90;99.90;;;;;;5093290;28;20713;-79
2022/06/14 12:47:05;;;;;;;10.82;6.10;;;9.90;99.90;;;;;;5073470;28;20193;-79
2022/06/14 12:49:39;;;;;;;10.65;6.35;;;9.80;99.90;;;;;;5089583;28;20200;-79
2022/06/14 12:52:33;;;;;;;11.27;5.85;;;9.80;99.90;;;;;;5092243;28;20203;-78
2022/06/14 12:55:07;;;;;;;9.38;5.15;;;9.70;99.90;;;;;;5087757;28;20196;-78
2022/06/14 12:58:07;;;;;;;9.45;5.30;;;9.70;99.90;;;;;;5091610;28;20249;-79
2022/06/14 13:00:45;;;;;;;10.88;5.65;;;9.70;99.90;;;;;;5091972;28;20657;-78
2022/06/14 13:03:26;;;;;;;8.57;5.22;;;9.80;99.90;;;;;;5087357;28;20228;-79
2022/06/14 13:06:01;;;;;;;10.50;5.80;;;9.80;99.90;;;;;;5087817;28;20223;-79
2022/06/14 13:08:41;;;;;;;11.82;5.30;;;9.80;99.90;;;;;;5092407;28;20195;-78
2022/06/14 13:11:22;;;;;;;8.45;5.30;;;9.80;99.90;;;;;;5091242;28;20195;-78
2022/06/14 13:14:10;;;;;;;9.05;5.10;;;9.80;99.90;;;;;;5092381;28;20200;-78
2022/06/14 13:17:07;;;;;;;8.60;5.30;;;9.70;99.90;;;;;;5089875;28;20220;-78
2022/06/14 13:19:43;;;;;;;7.43;4.90;;;9.70;99.90;;;;;;5092427;28;20195;-78
2022/06/14 13:22:54;;;;;;;8.30;4.75;;;9.70;99.90;;;;;;5091674;28;20733;-79
2022/06/14 13:25:50;;;;;;;9.65;5.60;;;9.70;99.90;;;;;;5090764;28;20529;-78
2022/06/14 13:28:35;;;;;;;8.50;4.88;;;9.60;99.90;;;;;;5046713;28;20409;-79
2022/06/14 13:31:20;;;;;;;11.55;5.47;;;9.60;99.90;;;;;;5093258;28;20195;-79
2022/06/14 13:33:58;;;;;;;7.35;5.32;;;9.60;99.90;;;;;;5091792;28;20227;-79
2022/06/14 13:36:38;;;;;;;10.73;5.82;;;9.60;99.90;;;;;;5091853;28;20212;-79
2022/06/14 13:39:18;;;;;;;7.68;5.18;;;9.60;99.90;;;;;;5092929;28;20196;-79
2022/06/14 13:42:03;;;;;;;10.88;5.32;;;9.50;99.90;;;;;;5092204;28;20207;-79
2022/06/14 13:44:42;;;;;;;10.73;5.45;;;9.50;99.90;;;;;;5090885;28;20198;-79
2022/06/14 13:47:19;;;;;;;11.27;5.68;;;9.40;99.90;;;;;;5092088;28;20196;-79
2022/06/14 13:50:00;;;;;;;8.65;5.82;;;9.30;99.90;;;;;;5094780;28;20380;-79
2022/06/14 13:52:35;;;;;;;8.90;6.05;;;9.30;99.90;;;;;;5084381;28;20200;-79
2022/06/14 13:55:11;;;;;;;8.65;5.80;;;9.30;99.90;;;;;;5092261;28;20560;-79
2022/06/14 13:57:47;;;;;;;11.18;5.75;;;9.30;99.90;;;;;;5094968;28;20211;-79
2022/06/14 14:00:24;;;;;;;7.80;5.60;;;9.30;99.90;;;;;;5095878;28;20202;-79
2022/06/14 14:02:59;;;;;;;8.48;5.63;;;9.30;99.90;;;;;;5094400;28;20738;-78
2022/06/14 14:05:36;;;;;;;9.98;6.60;;;9.30;99.90;;;;;;5094530;28;20203;-79
2022/06/14 14:08:14;;;;;;;9.48;6.40;;;9.20;99.90;;;;;;5096672;28;20184;-79
2022/06/14 14:10:55;;;;;;;9.13;6.10;;;9.20;99.90;;;;;;5080005;28;20223;-79
2022/06/14 14:13:33;;;;;;;8.35;5.93;;;9.20;99.90;;;;;;5095460;28;20199;-79
2022/06/14 14:16:08;;;;;;;10.52;6.25;;;9.20;99.90;;;;;;5091202;28;20246;-79
2022/06/14 14:18:49;;;;;;;13.48;6.22;;;9.20;99.90;;;;;;5083945;28;20188;-79
2022/06/14 14:21:25;;;;;;;11.40;6.15;;;9.20;99.90;;;;;;5095357;28;20232;-79
2022/06/14 14:24:20;;;;;;;9.57;6.25;;;9.20;99.90;;;;;;5095272;28;20204;-79
2022/06/14 14:26:57;;;;;;;8.52;5.90;;;9.30;99.90;;;;;;5094389;28;20211;-79
2022/06/14 14:29:33;;;;;;;8.35;6.10;;;9.30;99.90;;;;;;5094788;28;20246;-79
2022/06/14 14:32:09;;;;;;;8.82;6.38;;;9.30;99.90;;;;;;5095635;28;20192;-81
2022/06/14 14:34:48;;;;;;;11.57;6.43;;;9.30;99.90;;;;;;5094813;28;20203;-80
2022/06/14 14:37:26;;;;;;;10.63;6.63;;;9.30;99.90;;;;;;5096111;28;20219;-80
2022/06/14 14:40:16;;;;;;;10.45;6.65;;;9.30;99.90;;;;;;5075793;28;20280;-80
2022/06/14 14:42:59;;;;;;;10.93;6.50;;;9.30;99.90;;;;;;5073522;28;20196;-80
2022/06/14 14:45:37;;;;;;;10.35;6.45;;;9.30;99.90;;;;;;5093549;28;20224;-80
2022/06/14 14:48:16;;;;;;;10.93;6.68;;;9.30;99.90;;;;;;5094657;28;20208;-81
2022/06/14 14:50:54;;;;;;;13.43;6.50;;;9.20;99.90;;;;;;5094797;28;20192;-80
2022/06/14 14:53:36;;;;;;;11.00;6.60;;;9.20;99.90;;;;;;5094741;28;20257;-80
2022/06/14 14:56:15;;;;;;;12.05;6.68;;;9.20;99.90;;;;;;5075493;28;20200;-80
2022/06/14 14:58:56;;;;;;;11.82;7.30;;;9.20;99.90;;;;;;5094082;28;20200;-80
2022/06/14 15:07:38;;;;;;;12.35;6.55;;;9.10;99.90;;;;;;5095785;28;20647;-80
2022/06/14 15:10:15;;;;;;;11.98;6.78;;;9.10;99.90;;;;;;5092930;28;20215;-80
2022/06/14 15:12:50;;;;;;;10.45;6.60;;;9.10;99.90;;;;;;5094063;28;20195;-80
2022/06/14 15:15:25;;;;;;;10.77;6.85;;;9.10;99.90;;;;;;5086458;28;20655;-80
2022/06/14 15:20:55;;;;;;;10.95;6.55;;;8.90;99.90;;;;;;5086693;28;20656;-80
2022/06/14 15:23:30;;;;;;;10.55;6.85;;;8.90;99.90;;;;;;5083766;28;20228;-80
2022/06/14 15:26:04;;;;;;;10.15;6.50;;;8.90;99.90;;;;;;5092706;28;20203;-80
2022/06/14 15:28:48;;;;;;;10.10;7.07;;;8.80;99.90;;;;;;5092530;28;20196;-80
2022/06/14 15:31:49;;;;;;;10.30;6.00;;;8.70;99.90;;;;;;5086884;28;20204;-79
2022/06/14 15:34:29;;;;;;;10.70;6.30;;;8.70;99.90;;;;;;5080157;28;20191;-80
2022/06/14 15:37:01;;;;;;;7.88;5.22;;;8.70;99.90;;;;;;5082788;28;20200;-80
2022/06/14 15:39:33;;;;;;;8.55;5.70;;;8.70;99.90;;;;;;5087500;28;20192;-80
2022/06/14 15:42:35;;;;;;;10.43;5.63;;;8.70;99.90;;;;;;5086338;28;20639;-80
2022/06/14 15:45:23;;;;;;;11.25;5.35;;;8.70;99.90;;;;;;5083021;28;20199;-81
2022/06/14 15:48:03;;;;;;;11.00;5.95;;;8.70;99.90;;;;;;5081365;28;20648;-81
2022/06/14 15:50:36;;;;;;;7.85;5.80;;;8.70;99.90;;;;;;5083118;28;20189;-81
2022/06/14 15:53:18;;;;;;;8.85;5.60;;;8.70;99.90;;;;;;5083626;28;20200;-81
2022/06/14 15:55:53;;;;;;;10.07;5.75;;;8.70;99.90;;;;;;5084862;28;20552;-79
2022/06/14 15:58:31;;;;;;;8.98;5.60;;;8.70;99.90;;;;;;5084040;28;20204;-81
2022/06/14 16:01:04;;;;;;;12.75;6.00;;;8.70;99.90;;;;;;5087241;28;20195;-80
2022/06/14 16:03:39;;;;;;;8.50;5.72;;;8.70;99.90;;;;;;5089445;28;20236;-80
2022/06/14 16:06:14;;;;;;;9.70;5.30;;;8.70;99.90;;;;;;5084855;28;20192;-80
2022/06/14 16:08:57;;;;;;;8.05;5.57;;;8.70;99.90;;;;;;5088722;28;20203;-80
2022/06/14 16:11:28;;;;;;;9.52;5.30;;;8.70;99.90;;;;;;5086704;28;20184;-81
2022/06/14 16:14:07;;;;;;;9.80;5.95;;;8.70;99.90;;;;;;5077823;28;20212;-80
2022/06/14 16:16:41;;;;;;;7.57;5.32;;;8.70;99.90;;;;;;5085537;28;20232;-80
2022/06/14 16:19:32;;;;;;;8.30;5.40;;;8.70;99.90;;;;;;5080574;28;20199;-80
2022/06/14 16:22:16;;;;;;;6.95;4.75;;;8.60;99.90;;;;;;5083323;28;20201;-80